Time;durP1;ratioP1;P1;durP2;ratioP2;P2;SDS_P1;SDS_P2;PMS_P1;PMS_P2;Temp;Humidity;BMP_temperature;BMP_pressure;BME280_temperature;BME280_humidity;BME280_pressure;Samples;Min_cycle;Max_cycle;Signal;HPM_P1;HPM_P2
2022/09/30 00:01:11;;;;;;;0.43;0.43;;;;;;;;;;5049838;28;20230;-83
2022/09/30 00:03:40;;;;;;;0.57;0.57;;;;;;;;;;5031647;28;20199;-83
2022/09/30 00:06:09;;;;;;;0.50;0.50;;;;;;;;;;5038793;28;20268;-83
2022/09/30 00:08:38;;;;;;;0.50;0.50;;;;;;;;;;5034015;28;20203;-83
2022/09/30 00:11:08;;;;;;;0.50;0.50;;;;;;;;;;5030099;28;20203;-83
2022/09/30 00:13:37;;;;;;;0.60;0.60;;;;;;;;;;5034887;28;20272;-83
2022/09/30 00:16:07;;;;;;;0.60;0.60;;;;;;;;;;5049766;28;20191;-83
2022/09/30 00:18:36;;;;;;;0.50;0.50;;;;;;;;;;5046087;28;20201;-83
2022/09/30 00:21:05;;;;;;;0.87;0.87;;;;;;;;;;5038771;28;20253;-83
2022/09/30 00:23:33;;;;;;;0.50;0.50;;;;;;;;;;5062580;28;20190;-83
2022/09/30 00:26:03;;;;;;;0.50;0.50;;;;;;;;;;5046657;28;20222;-83
2022/09/30 00:28:31;;;;;;;1.43;1.33;;;;;;;;;;5044984;28;20292;-83
2022/09/30 00:31:00;;;;;;;0.50;0.50;;;;;;;;;;5046061;28;20217;-83
2022/09/30 00:33:30;;;;;;;0.50;0.50;;;;;;;;;;5047128;28;20264;-83
2022/09/30 00:35:58;;;;;;;1.77;1.67;;;;;;;;;;5033912;28;20233;-83
2022/09/30 00:38:26;;;;;;;0.50;0.50;;;;;;;;;;5023286;28;20257;-83
2022/09/30 00:40:55;;;;;;;0.50;0.50;;;;;;;;;;5045834;28;20222;-83
2022/09/30 00:43:41;;;;;;;0.50;0.50;;;;;;;;;;5048942;28;20190;-83
2022/09/30 00:46:14;;;;;;;0.50;0.50;;;;;;;;;;5041024;28;20209;-83
2022/09/30 00:48:44;;;;;;;0.60;0.60;;;;;;;;;;5067770;28;20195;-83
2022/09/30 00:51:12;;;;;;;0.60;0.60;;;;;;;;;;5068658;28;20273;-83
2022/09/30 00:53:45;;;;;;;0.50;0.50;;;;;;;;;;5046232;28;20227;-83
2022/09/30 00:56:17;;;;;;;0.57;0.57;;;;;;;;;;5047876;28;20226;-84
2022/09/30 00:58:47;;;;;;;1.37;1.27;;;;;;;;;;5041436;28;20206;-83
2022/09/30 01:01:16;;;;;;;0.60;0.60;;;;;;;;;;5052579;28;20230;-83
2022/09/30 01:03:49;;;;;;;1.23;1.23;;;;;;;;;;5053348;28;20221;-83
2022/09/30 01:06:17;;;;;;;0.60;0.60;;;;;;;;;;5035264;28;20241;-83
2022/09/30 01:08:46;;;;;;;0.60;0.60;;;;;;;;;;5032931;28;20206;-83
2022/09/30 01:11:14;;;;;;;0.90;0.90;;;;;;;;;;5029154;28;20202;-83
2022/09/30 01:13:43;;;;;;;1.03;1.03;;;;;;;;;;5049204;28;20230;-83
2022/09/30 01:16:23;;;;;;;1.53;1.53;;;;;;;;;;5041745;28;20228;-83
2022/09/30 01:18:59;;;;;;;0.60;0.60;;;;;;;;;;5042022;28;20234;-83
2022/09/30 01:21:54;;;;;;;1.93;1.83;;;;;;;;;;5044317;28;20292;-83
2022/09/30 01:24:48;;;;;;;0.60;0.60;;;;;;;;;;5018425;28;20217;-83
2022/09/30 01:27:19;;;;;;;0.60;0.60;;;;;;;;;;5047896;28;20232;-83
2022/09/30 01:29:54;;;;;;;0.60;0.60;;;;;;;;;;5033224;28;20206;-83
2022/09/30 01:32:29;;;;;;;0.60;0.60;;;;;;;;;;5050647;28;20204;-83
2022/09/30 01:35:07;;;;;;;1.20;1.17;;;;;;;;;;5040912;28;20216;-83
2022/09/30 01:37:40;;;;;;;0.60;0.60;;;;;;;;;;5039707;28;20205;-83
2022/09/30 01:40:13;;;;;;;0.60;0.60;;;;;;;;;;5050550;28;20210;-83
2022/09/30 01:42:46;;;;;;;0.60;0.60;;;;;;;;;;5042862;28;20199;-83
2022/09/30 01:45:17;;;;;;;0.50;0.50;;;;;;;;;;5048177;28;20189;-83
2022/09/30 01:47:49;;;;;;;0.80;0.80;;;;;;;;;;5050910;28;20203;-83
2022/09/30 01:50:19;;;;;;;12.50;2.00;;;;;;;;;;5032254;28;20217;-83
2022/09/30 01:52:53;;;;;;;0.60;0.60;;;;;;;;;;5038536;28;20291;-83
2022/09/30 01:55:24;;;;;;;1.33;1.23;;;;;;;;;;5038527;28;20274;-83
2022/09/30 01:57:57;;;;;;;1.00;1.00;;;;;;;;;;5043188;28;20271;-83
2022/09/30 02:00:25;;;;;;;0.50;0.50;;;;;;;;;;5053422;28;20213;-83
2022/09/30 02:02:57;;;;;;;0.70;0.70;;;;;;;;;;5032156;28;20296;-83
2022/09/30 02:05:27;;;;;;;1.23;1.20;;;;;;;;;;5046852;28;20199;-83
2022/09/30 02:07:57;;;;;;;1.10;1.10;;;;;;;;;;5047270;28;20227;-83
2022/09/30 02:10:28;;;;;;;1.00;1.00;;;;;;;;;;5067923;28;20205;-83
2022/09/30 02:13:02;;;;;;;0.70;0.70;;;;;;;;;;5036126;28;20201;-83
2022/09/30 02:15:33;;;;;;;0.60;0.60;;;;;;;;;;5029559;28;20221;-83
2022/09/30 02:18:12;;;;;;;0.60;0.60;;;;;;;;;;5054432;28;20270;-83
2022/09/30 02:20:43;;;;;;;0.70;0.70;;;;;;;;;;5030894;28;20248;-83
2022/09/30 02:23:14;;;;;;;1.30;1.27;;;;;;;;;;5057490;28;20304;-83
2022/09/30 02:25:45;;;;;;;0.60;0.60;;;;;;;;;;5044521;28;20197;-83
2022/09/30 02:28:17;;;;;;;0.60;0.60;;;;;;;;;;5071226;28;20234;-83
2022/09/30 02:30:46;;;;;;;0.67;0.67;;;;;;;;;;5056774;28;20298;-83
2022/09/30 02:33:20;;;;;;;4.40;3.83;;;;;;;;;;5042691;28;20211;-83
2022/09/30 02:35:50;;;;;;;5.50;4.70;;;;;;;;;;5043600;28;20308;-83
2022/09/30 02:38:19;;;;;;;2.03;1.87;;;;;;;;;;5036676;28;20227;-83
2022/09/30 02:40:50;;;;;;;1.40;1.30;;;;;;;;;;5047826;28;20208;-83
2022/09/30 02:43:20;;;;;;;1.10;1.10;;;;;;;;;;5049779;28;20206;-83
2022/09/30 02:45:52;;;;;;;2.10;2.00;;;;;;;;;;5048677;28;20247;-83
2022/09/30 02:48:27;;;;;;;3.53;2.83;;;;;;;;;;5054836;28;20290;-83
2022/09/30 02:50:56;;;;;;;4.03;3.63;;;;;;;;;;5042734;28;20302;-83
2022/09/30 02:53:28;;;;;;;4.27;3.87;;;;;;;;;;5044549;28;20212;-83
2022/09/30 02:56:11;;;;;;;1.97;1.87;;;;;;;;;;5034824;28;20260;-83
2022/09/30 02:58:42;;;;;;;5.27;3.97;;;;;;;;;;5048463;28;20251;-83
2022/09/30 03:01:11;;;;;;;0.90;0.90;;;;;;;;;;5035155;28;20275;-83
2022/09/30 03:03:42;;;;;;;0.60;0.60;;;;;;;;;;5036128;28;20288;-83
2022/09/30 03:06:11;;;;;;;1.30;1.30;;;;;;;;;;5047401;28;20255;-83
2022/09/30 03:08:40;;;;;;;0.63;0.63;;;;;;;;;;5034639;28;20200;-83
2022/09/30 03:11:08;;;;;;;0.80;0.80;;;;;;;;;;5036194;28;20292;-83
2022/09/30 03:13:54;;;;;;;0.60;0.60;;;;;;;;;;5052061;28;20227;-83
2022/09/30 03:16:28;;;;;;;0.80;0.80;;;;;;;;;;5034602;28;20259;-83
2022/09/30 03:19:06;;;;;;;0.60;0.60;;;;;;;;;;5028491;28;20208;-83
2022/09/30 03:21:43;;;;;;;0.70;0.70;;;;;;;;;;5057733;28;20206;-83
2022/09/30 03:24:40;;;;;;;0.60;0.60;;;;;;;;;;5054806;28;20222;-83
2022/09/30 03:27:13;;;;;;;0.80;0.80;;;;;;;;;;5023390;28;20229;-83
2022/09/30 03:29:45;;;;;;;0.60;0.60;;;;;;;;;;5049225;28;20205;-83
2022/09/30 03:32:19;;;;;;;0.60;0.60;;;;;;;;;;5061403;28;20210;-83
2022/09/30 03:34:58;;;;;;;0.60;0.60;;;;;;;;;;5034158;28;20220;-83
2022/09/30 03:37:32;;;;;;;5.30;1.97;;;;;;;;;;5034202;28;20203;-83
2022/09/30 03:40:03;;;;;;;0.60;0.60;;;;;;;;;;5034464;28;20236;-83
2022/09/30 03:42:36;;;;;;;0.60;0.60;;;;;;;;;;5047887;28;20197;-83
2022/09/30 03:45:08;;;;;;;0.60;0.60;;;;;;;;;;5070592;28;20224;-83
2022/09/30 03:47:41;;;;;;;0.60;0.60;;;;;;;;;;5051422;28;20282;-83
2022/09/30 03:50:12;;;;;;;0.60;0.60;;;;;;;;;;5035036;28;20206;-83
2022/09/30 03:52:41;;;;;;;0.60;0.60;;;;;;;;;;5051432;28;20213;-83
2022/09/30 03:55:10;;;;;;;0.50;0.50;;;;;;;;;;5052880;28;20222;-83
2022/09/30 03:57:39;;;;;;;0.60;0.60;;;;;;;;;;5035752;28;20289;-83
2022/09/30 04:00:08;;;;;;;0.60;0.60;;;;;;;;;;5046408;28;20227;-83
2022/09/30 04:02:36;;;;;;;0.60;0.60;;;;;;;;;;5039621;28;20216;-83
2022/09/30 04:05:05;;;;;;;0.60;0.60;;;;;;;;;;5053686;28;20198;-83
2022/09/30 04:07:36;;;;;;;0.60;0.60;;;;;;;;;;5028493;28;20224;-83
2022/09/30 04:10:04;;;;;;;0.70;0.70;;;;;;;;;;5052097;28;20208;-83
2022/09/30 04:12:32;;;;;;;0.60;0.60;;;;;;;;;;5034106;28;20259;-83
2022/09/30 04:15:01;;;;;;;0.60;0.60;;;;;;;;;;5035585;28;20635;-83
2022/09/30 04:17:29;;;;;;;0.60;0.60;;;;;;;;;;5036693;28;20237;-83
2022/09/30 04:19:58;;;;;;;0.70;0.70;;;;;;;;;;5029541;28;20201;-83
2022/09/30 04:22:26;;;;;;;0.60;0.60;;;;;;;;;;5042110;28;20208;-83
2022/09/30 04:24:56;;;;;;;0.60;0.60;;;;;;;;;;5039768;28;20205;-82
2022/09/30 04:27:26;;;;;;;1.23;1.10;;;;;;;;;;5054011;28;20236;-82
2022/09/30 04:29:54;;;;;;;1.27;1.27;;;;;;;;;;5037695;28;20263;-82
2022/09/30 04:32:24;;;;;;;1.43;1.43;;;;;;;;;;5044581;28;20207;-83
2022/09/30 04:34:53;;;;;;;1.10;1.10;;;;;;;;;;5053049;28;20296;-83
2022/09/30 04:37:22;;;;;;;0.60;0.60;;;;;;;;;;5050757;28;20223;-83
2022/09/30 04:39:51;;;;;;;0.60;0.60;;;;;;;;;;5051447;28;20196;-83
2022/09/30 04:42:20;;;;;;;0.90;0.90;;;;;;;;;;5041563;28;20263;-83
2022/09/30 04:44:49;;;;;;;0.70;0.70;;;;;;;;;;5050627;28;20262;-83
2022/09/30 04:47:17;;;;;;;0.70;0.70;;;;;;;;;;5052041;28;20293;-83
2022/09/30 04:49:46;;;;;;;0.70;0.70;;;;;;;;;;5052070;28;20236;-82
2022/09/30 04:52:14;;;;;;;0.70;0.70;;;;;;;;;;5052230;28;20256;-83
2022/09/30 04:54:42;;;;;;;0.80;0.80;;;;;;;;;;5037519;28;20232;-83
2022/09/30 04:57:12;;;;;;;0.60;0.60;;;;;;;;;;5046652;28;20228;-83
2022/09/30 04:59:42;;;;;;;0.60;0.60;;;;;;;;;;5032980;28;20198;-83
2022/09/30 05:02:11;;;;;;;0.90;0.90;;;;;;;;;;5049625;28;20311;-83
2022/09/30 05:04:40;;;;;;;0.80;0.80;;;;;;;;;;5042564;28;20280;-83
2022/09/30 05:07:08;;;;;;;2.67;2.63;;;;;;;;;;5067700;28;20192;-83
2022/09/30 05:09:37;;;;;;;0.70;0.70;;;;;;;;;;5043380;28;20264;-83
2022/09/30 05:12:05;;;;;;;0.70;0.70;;;;;;;;;;5037140;28;20229;-83
2022/09/30 05:14:33;;;;;;;1.23;1.23;;;;;;;;;;5053267;28;20213;-83
2022/09/30 05:17:03;;;;;;;0.80;0.80;;;;;;;;;;5053016;28;20219;-82
2022/09/30 05:19:31;;;;;;;2.20;2.00;;;;;;;;;;5068178;28;20320;-83
2022/09/30 05:22:00;;;;;;;0.90;0.90;;;;;;;;;;5052011;28;20221;-83
2022/09/30 05:24:31;;;;;;;0.60;0.60;;;;;;;;;;5069099;28;20209;-83
2022/09/30 05:27:00;;;;;;;0.73;0.73;;;;;;;;;;5046295;28;20232;-83
2022/09/30 05:29:28;;;;;;;1.10;1.10;;;;;;;;;;5032284;28;20228;-83
2022/09/30 05:31:56;;;;;;;1.17;1.17;;;;;;;;;;5052698;28;20267;-83
2022/09/30 05:34:27;;;;;;;1.20;1.20;;;;;;;;;;5050386;28;20291;-83
2022/09/30 05:36:58;;;;;;;1.23;1.23;;;;;;;;;;5040197;28;20221;-83
2022/09/30 05:39:26;;;;;;;0.70;0.70;;;;;;;;;;5050399;28;20193;-83
2022/09/30 05:41:56;;;;;;;1.97;1.80;;;;;;;;;;5059827;28;20200;-82
2022/09/30 05:44:25;;;;;;;0.60;0.60;;;;;;;;;;5030541;28;20258;-83
2022/09/30 05:46:53;;;;;;;0.80;0.80;;;;;;;;;;5023908;28;20199;-82
2022/09/30 05:49:22;;;;;;;3.40;1.90;;;;;;;;;;5036556;28;20207;-82
2022/09/30 05:51:52;;;;;;;1.00;1.00;;;;;;;;;;5068091;28;20205;-83
2022/09/30 05:54:23;;;;;;;1.80;1.70;;;;;;;;;;5046011;28;20208;-82
2022/09/30 05:56:52;;;;;;;0.70;0.70;;;;;;;;;;5037919;28;20218;-82
2022/09/30 05:59:20;;;;;;;0.60;0.60;;;;;;;;;;5045410;28;20200;-82
2022/09/30 06:01:48;;;;;;;0.60;0.60;;;;;;;;;;5031855;28;20226;-82
2022/09/30 06:04:17;;;;;;;7.20;4.00;;;;;;;;;;5025316;28;20231;-82
2022/09/30 06:06:47;;;;;;;1.47;1.47;;;;;;;;;;5031526;28;20308;-82
2022/09/30 06:09:17;;;;;;;6.07;5.40;;;;;;;;;;5045237;28;20204;-82
2022/09/30 06:11:45;;;;;;;7.83;5.93;;;;;;;;;;5051253;28;20199;-82
2022/09/30 06:14:15;;;;;;;7.97;7.17;;;;;;;;;;5049920;28;20254;-82
2022/09/30 06:16:44;;;;;;;9.27;6.50;;;;;;;;;;5040234;28;20242;-82
2022/09/30 06:19:12;;;;;;;7.53;5.83;;;;;;;;;;5043762;28;20191;-82
2022/09/30 06:21:41;;;;;;;9.40;6.63;;;;;;;;;;5035540;28;20235;-82
2022/09/30 06:24:12;;;;;;;6.10;4.17;;;;;;;;;;5041803;28;20282;-82
2022/09/30 06:26:42;;;;;;;8.43;7.63;;;;;;;;;;5038172;28;20196;-82
2022/09/30 06:29:10;;;;;;;7.17;6.30;;;;;;;;;;5057448;28;20241;-81
2022/09/30 06:31:39;;;;;;;7.87;7.17;;;;;;;;;;5043792;28;20198;-82
2022/09/30 06:34:07;;;;;;;7.43;6.70;;;;;;;;;;5023375;28;20208;-82
2022/09/30 06:36:35;;;;;;;6.00;5.40;;;;;;;;;;5049454;28;20221;-82
2022/09/30 06:39:06;;;;;;;5.87;5.30;;;;;;;;;;5067605;28;20201;-82
2022/09/30 06:41:42;;;;;;;7.40;4.13;;;;;;;;;;5061466;28;20206;-81
2022/09/30 06:44:11;;;;;;;6.33;5.17;;;;;;;;;;5044692;28;20201;-82
2022/09/30 06:46:39;;;;;;;8.50;5.13;;;;;;;;;;5032769;28;20193;-82
2022/09/30 06:49:20;;;;;;;5.47;4.10;;;;;;;;;;5045767;28;20190;-81
2022/09/30 06:51:51;;;;;;;6.10;5.50;;;;;;;;;;5033382;28;20291;-81
2022/09/30 06:54:20;;;;;;;2.00;1.87;;;;;;;;;;5040405;28;20204;-81
2022/09/30 06:56:52;;;;;;;1.47;1.37;;;;;;;;;;5054906;28;20209;-81
2022/09/30 06:59:21;;;;;;;5.27;4.77;;;;;;;;;;5039100;28;20245;-81
2022/09/30 07:01:51;;;;;;;1.23;1.23;;;;;;;;;;5048029;28;20234;-81
2022/09/30 07:04:20;;;;;;;7.97;5.77;;;;;;;;;;5045446;28;20202;-81
2022/09/30 07:06:48;;;;;;;5.83;4.90;;;;;;;;;;5057500;28;20205;-81
2022/09/30 07:09:17;;;;;;;16.90;3.73;;;;;;;;;;5035062;28;20290;-81
2022/09/30 07:11:47;;;;;;;4.43;3.77;;;;;;;;;;5049250;28;20202;-81
2022/09/30 07:14:16;;;;;;;2.60;2.40;;;;;;;;;;5054674;28;20202;-81
2022/09/30 07:16:45;;;;;;;4.63;4.23;;;;;;;;;;5051432;28;20207;-81
2022/09/30 07:19:16;;;;;;;8.03;6.07;;;;;;;;;;5035395;28;20202;-81
2022/09/30 07:21:45;;;;;;;7.13;6.43;;;;;;;;;;5034838;28;20233;-81
2022/09/30 07:24:13;;;;;;;5.00;4.50;;;;;;;;;;5044419;28;20208;-81
2022/09/30 07:26:44;;;;;;;8.47;6.27;;;;;;;;;;5070358;28;20212;-81
2022/09/30 07:29:12;;;;;;;4.50;4.10;;;;;;;;;;5070275;28;20230;-81
2022/09/30 07:31:42;;;;;;;6.27;5.20;;;;;;;;;;5052994;28;20203;-81
2022/09/30 07:34:11;;;;;;;6.43;5.83;;;;;;;;;;5022979;28;20231;-81
2022/09/30 07:36:42;;;;;;;6.30;5.73;;;;;;;;;;5033961;28;20208;-81
2022/09/30 07:39:11;;;;;;;4.43;4.03;;;;;;;;;;5021601;28;20210;-81
2022/09/30 07:41:40;;;;;;;4.83;4.30;;;;;;;;;;5070463;28;20209;-81
2022/09/30 07:44:12;;;;;;;4.73;4.33;;;;;;;;;;5070116;28;20205;-81
2022/09/30 07:46:41;;;;;;;3.30;3.00;;;;;;;;;;5053733;28;20470;-81
2022/09/30 07:49:13;;;;;;;3.50;3.20;;;;;;;;;;5061871;28;20229;-81
2022/09/30 07:51:44;;;;;;;2.70;2.40;;;;;;;;;;5069676;28;20296;-81
2022/09/30 07:54:13;;;;;;;3.87;1.73;;;;;;;;;;5068439;28;20197;-81
2022/09/30 07:56:42;;;;;;;2.10;1.80;;;;;;;;;;5060069;28;20205;-81
2022/09/30 07:59:32;;;;;;;2.10;1.60;;;;;;;;;;5034767;28;20617;-81
2022/09/30 08:02:01;;;;;;;1.90;1.80;;;;;;;;;;5048136;28;20291;-81
2022/09/30 08:04:31;;;;;;;1.47;1.37;;;;;;;;;;5052979;28;20230;-81
2022/09/30 08:07:01;;;;;;;2.70;1.70;;;;;;;;;;5054942;28;20207;-81
2022/09/30 08:09:30;;;;;;;1.50;1.40;;;;;;;;;;5043427;28;20297;-82
2022/09/30 08:11:59;;;;;;;3.03;1.47;;;;;;;;;;5043340;28;20252;-82
2022/09/30 08:14:28;;;;;;;1.03;0.83;;;;;;;;;;5059578;28;20203;-81
2022/09/30 08:16:59;;;;;;;1.63;1.40;;;;;;;;;;5033779;28;20330;-82
2022/09/30 08:19:28;;;;;;;1.57;1.47;;;;;;;;;;5043398;28;20198;-81
2022/09/30 08:21:58;;;;;;;1.77;1.60;;;;;;;;;;5068863;28;20198;-81
2022/09/30 08:24:27;;;;;;;2.07;1.77;;;;;;;;;;5053097;28;20203;-81
2022/09/30 08:26:56;;;;;;;1.50;1.40;;;;;;;;;;5068556;28;20199;-82
2022/09/30 08:29:24;;;;;;;1.60;1.50;;;;;;;;;;5028150;28;20286;-81
2022/09/30 08:32:16;;;;;;;2.13;1.43;;;;;;;;;;5032385;28;20252;-82
2022/09/30 08:34:45;;;;;;;1.67;1.37;;;;;;;;;;5051102;28;20203;-81
2022/09/30 08:37:17;;;;;;;3.63;1.70;;;;;;;;;;5060298;28;20203;-81
2022/09/30 08:39:47;;;;;;;1.20;1.20;;;;;;;;;;5048685;28;20202;-81
2022/09/30 08:42:21;;;;;;;1.60;1.50;;;;;;;;;;5067937;28;20293;-81
2022/09/30 08:45:10;;;;;;;1.50;1.40;;;;;;;;;;5051220;28;20202;-81
2022/09/30 08:47:44;;;;;;;2.50;1.87;;;;;;;;;;5065677;28;20199;-81
2022/09/30 08:50:20;;;;;;;1.23;1.13;;;;;;;;;;5069476;28;20230;-81
2022/09/30 08:52:51;;;;;;;1.60;1.50;;;;;;;;;;5065702;28;20233;-81
2022/09/30 08:55:22;;;;;;;1.70;1.40;;;;;;;;;;5066023;28;20206;-81
2022/09/30 08:57:52;;;;;;;2.67;1.80;;;;;;;;;;5033485;28;20214;-81
2022/09/30 09:00:30;;;;;;;2.03;1.93;;;;;;;;;;5035499;28;20209;-81
2022/09/30 09:03:00;;;;;;;1.93;1.73;;;;;;;;;;5020044;28;20298;-82
2022/09/30 09:05:32;;;;;;;2.30;1.87;;;;;;;;;;5043676;28;20203;-81
2022/09/30 09:08:05;;;;;;;1.83;1.67;;;;;;;;;;5067421;28;20202;-81
2022/09/30 09:10:39;;;;;;;1.23;1.13;;;;;;;;;;5036585;28;20214;-81
2022/09/30 09:13:14;;;;;;;1.70;1.60;;;;;;;;;;5042967;28;20208;-81
2022/09/30 09:15:51;;;;;;;1.53;1.13;;;;;;;;;;5050827;28;20254;-82
2022/09/30 09:18:24;;;;;;;1.50;1.40;;;;;;;;;;5066080;28;20242;-81
2022/09/30 09:20:55;;;;;;;1.43;1.20;;;;;;;;;;5059707;28;20294;-81
2022/09/30 09:23:25;;;;;;;1.40;1.30;;;;;;;;;;5048766;28;20194;-82
2022/09/30 09:25:54;;;;;;;1.93;1.17;;;;;;;;;;5058022;28;20207;-81
2022/09/30 09:28:32;;;;;;;2.50;1.40;;;;;;;;;;5031966;28;20234;-81
2022/09/30 09:31:01;;;;;;;0.70;0.70;;;;;;;;;;5045296;28;20272;-81
2022/09/30 09:33:34;;;;;;;1.20;1.10;;;;;;;;;;5067969;28;20314;-81
2022/09/30 09:36:09;;;;;;;1.40;1.30;;;;;;;;;;5024729;28;20298;-81
2022/09/30 09:38:44;;;;;;;2.80;1.80;;;;;;;;;;5029591;28;20218;-81
2022/09/30 09:41:18;;;;;;;1.57;1.47;;;;;;;;;;5038997;28;20298;-81
2022/09/30 09:43:55;;;;;;;1.70;1.60;;;;;;;;;;5032268;28;20234;-81
2022/09/30 09:46:26;;;;;;;1.70;1.60;;;;;;;;;;5050969;28;20195;-81
2022/09/30 09:49:14;;;;;;;1.27;1.20;;;;;;;;;;5068658;28;20206;-81
2022/09/30 09:51:47;;;;;;;2.40;1.83;;;;;;;;;;5051639;28;20194;-82
2022/09/30 09:54:19;;;;;;;1.70;1.60;;;;;;;;;;5039636;28;20203;-81
2022/09/30 09:56:51;;;;;;;2.20;2.00;;;;;;;;;;5067440;28;20230;-81
2022/09/30 09:59:20;;;;;;;2.30;1.80;;;;;;;;;;5037096;28;20320;-81
2022/09/30 10:01:50;;;;;;;1.80;1.60;;;;;;;;;;5044087;28;20227;-81
2022/09/30 10:04:22;;;;;;;3.70;2.33;;;;;;;;;;5031761;28;20203;-81
2022/09/30 10:06:53;;;;;;;2.90;2.27;;;;;;;;;;5045280;28;20231;-82
2022/09/30 10:09:27;;;;;;;3.00;2.70;;;;;;;;;;5068322;28;20209;-81
2022/09/30 10:12:11;;;;;;;3.83;3.00;;;;;;;;;;5039040;28;20216;-79
2022/09/30 10:14:45;;;;;;;4.50;3.47;;;;;;;;;;5031324;28;20231;-81
2022/09/30 10:17:19;;;;;;;2.17;1.97;;;;;;;;;;5032400;28;20200;-82
2022/09/30 10:19:50;;;;;;;4.17;2.53;;;;;;;;;;5043589;28;20227;-82
2022/09/30 10:22:19;;;;;;;6.33;5.37;;;;;;;;;;5061038;28;20203;-82
2022/09/30 10:24:49;;;;;;;5.97;5.37;;;;;;;;;;5046473;28;20230;-82
2022/09/30 10:27:28;;;;;;;6.30;4.77;;;;;;;;;;5070733;28;20234;-81
2022/09/30 10:29:56;;;;;;;5.33;4.83;;;;;;;;;;5045674;28;20196;-81
2022/09/30 10:32:26;;;;;;;5.63;5.13;;;;;;;;;;5054837;28;20230;-81
2022/09/30 10:34:55;;;;;;;6.70;3.83;;;;;;;;;;5041889;28;20278;-81
2022/09/30 10:37:27;;;;;;;7.47;3.53;;;;;;;;;;5035373;28;20206;-81
2022/09/30 10:40:00;;;;;;;2.47;1.97;;;;;;;;;;5041905;28;20231;-83
2022/09/30 10:42:30;;;;;;;3.83;2.93;;;;;;;;;;5030099;28;20209;-81
2022/09/30 10:45:01;;;;;;;3.20;2.27;;;;;;;;;;5042624;28;20229;-81
2022/09/30 10:47:31;;;;;;;3.97;3.57;;;;;;;;;;5070416;28;20281;-82
2022/09/30 10:50:07;;;;;;;7.17;5.50;;;;;;;;;;5062501;28;20232;-80
2022/09/30 10:52:37;;;;;;;6.83;4.90;;;;;;;;;;5048355;28;20204;-82
2022/09/30 10:55:08;;;;;;;5.20;4.70;;;;;;;;;;5046270;28;20208;-83
2022/09/30 10:57:47;;;;;;;4.40;2.73;;;;;;;;;;5036756;28;20221;-80
2022/09/30 11:00:18;;;;;;;3.17;2.87;;;;;;;;;;5034374;28;20214;-81
2022/09/30 11:02:50;;;;;;;3.80;3.50;;;;;;;;;;5041809;28;20292;-80
2022/09/30 11:05:23;;;;;;;4.60;4.20;;;;;;;;;;5042101;28;20218;-80
2022/09/30 11:07:54;;;;;;;5.30;4.03;;;;;;;;;;5034212;28;20209;-80
2022/09/30 11:10:30;;;;;;;5.20;3.80;;;;;;;;;;5054593;28;20202;-80
2022/09/30 11:13:02;;;;;;;3.43;3.10;;;;;;;;;;5038605;28;20210;-81
2022/09/30 11:15:33;;;;;;;2.40;2.13;;;;;;;;;;5041610;28;20206;-80
2022/09/30 11:18:06;;;;;;;1.07;1.03;;;;;;;;;;5034039;28;20418;-79
2022/09/30 11:20:39;;;;;;;1.23;1.13;;;;;;;;;;5030615;28;20221;-79
2022/09/30 11:23:16;;;;;;;4.07;2.97;;;;;;;;;;5049726;28;20208;-81
2022/09/30 11:25:48;;;;;;;1.77;1.47;;;;;;;;;;5033563;28;20209;-80
2022/09/30 11:28:25;;;;;;;1.47;0.87;;;;;;;;;;5029085;28;20230;-80
2022/09/30 11:30:57;;;;;;;0.70;0.70;;;;;;;;;;5021204;28;20201;-80
2022/09/30 11:33:32;;;;;;;0.90;0.90;;;;;;;;;;5038029;28;20197;-80
2022/09/30 11:36:14;;;;;;;1.90;1.00;;;;;;;;;;5051917;28;20215;-80
2022/09/30 11:38:53;;;;;;;1.40;1.30;;;;;;;;;;5024104;28;20212;-80
2022/09/30 11:41:28;;;;;;;0.60;0.57;;;;;;;;;;5050832;28;20203;-80
2022/09/30 11:44:02;;;;;;;1.70;1.00;;;;;;;;;;5046891;28;20264;-80
2022/09/30 11:46:38;;;;;;;0.40;0.40;;;;;;;;;;5051843;28;20213;-80
2022/09/30 11:49:34;;;;;;;0.97;0.80;;;;;;;;;;5067791;28;20202;-80
2022/09/30 11:52:09;;;;;;;0.80;0.80;;;;;;;;;;5015094;28;20208;-80
2022/09/30 11:54:44;;;;;;;4.00;1.27;;;;;;;;;;5050549;28;20208;-80
2022/09/30 11:57:18;;;;;;;0.50;0.50;;;;;;;;;;5041944;28;20207;-80
2022/09/30 11:59:49;;;;;;;0.50;0.50;;;;;;;;;;5042924;28;20310;-80
2022/09/30 12:02:26;;;;;;;0.60;0.60;;;;;;;;;;5043362;28;20228;-80
2022/09/30 12:04:57;;;;;;;0.63;0.63;;;;;;;;;;5035283;28;20244;-80
2022/09/30 12:07:31;;;;;;;0.80;0.80;;;;;;;;;;5046876;28;20202;-80
2022/09/30 12:10:01;;;;;;;0.90;0.60;;;;;;;;;;5045659;28;20205;-80
2022/09/30 12:12:31;;;;;;;1.07;0.97;;;;;;;;;;5039276;28;20201;-80
2022/09/30 12:15:01;;;;;;;2.97;1.00;;;;;;;;;;5069757;28;20256;-80
2022/09/30 12:17:32;;;;;;;2.10;0.80;;;;;;;;;;5022948;28;20194;-80
2022/09/30 12:20:04;;;;;;;2.40;1.50;;;;;;;;;;5036258;28;20214;-80
2022/09/30 12:22:45;;;;;;;2.20;1.33;;;;;;;;;;5053274;28;20225;-80
2022/09/30 12:25:15;;;;;;;0.60;0.60;;;;;;;;;;5047639;28;20195;-80
2022/09/30 12:27:47;;;;;;;2.23;1.63;;;;;;;;;;5033940;28;20234;-80
2022/09/30 12:30:16;;;;;;;2.07;1.30;;;;;;;;;;5052922;28;20190;-80
2022/09/30 12:33:00;;;;;;;1.73;1.00;;;;;;;;;;5068240;28;20263;-80
2022/09/30 12:35:48;;;;;;;0.80;0.80;;;;;;;;;;5069199;28;20209;-80
2022/09/30 12:38:24;;;;;;;1.17;0.80;;;;;;;;;;5061267;28;20255;-80
2022/09/30 12:41:03;;;;;;;1.20;1.10;;;;;;;;;;5064071;28;20225;-80
2022/09/30 12:43:54;;;;;;;2.60;1.10;;;;;;;;;;5031417;28;20206;-81
2022/09/30 12:46:25;;;;;;;2.37;1.30;;;;;;;;;;5043734;28;20209;-81
2022/09/30 12:48:56;;;;;;;2.83;1.03;;;;;;;;;;5051911;28;20235;-81
2022/09/30 12:51:26;;;;;;;3.93;0.90;;;;;;;;;;5051265;28;20201;-81
2022/09/30 12:53:58;;;;;;;2.23;1.40;;;;;;;;;;5056692;28;20220;-81
2022/09/30 12:56:29;;;;;;;1.10;0.97;;;;;;;;;;5034258;28;20215;-80
2022/09/30 12:59:00;;;;;;;1.30;1.20;;;;;;;;;;5034710;28;20215;-80
2022/09/30 13:01:32;;;;;;;1.30;1.20;;;;;;;;;;5043015;28;20240;-80
2022/09/30 13:04:16;;;;;;;1.30;1.20;;;;;;;;;;5035579;28;20198;-80
2022/09/30 13:07:03;;;;;;;1.60;1.50;;;;;;;;;;5046129;28;20205;-80
2022/09/30 13:09:35;;;;;;;1.53;1.43;;;;;;;;;;5059791;28;20210;-80
2022/09/30 13:12:16;;;;;;;5.70;1.17;;;;;;;;;;5049165;28;20206;-81
2022/09/30 13:14:46;;;;;;;1.90;1.20;;;;;;;;;;5068787;28;20228;-80
2022/09/30 13:17:26;;;;;;;4.73;1.90;;;;;;;;;;5049332;28;20329;-80
2022/09/30 13:19:57;;;;;;;3.00;2.70;;;;;;;;;;5043678;28;20267;-80
2022/09/30 13:22:42;;;;;;;1.80;1.70;;;;;;;;;;5046948;28;20214;-80
2022/09/30 13:25:15;;;;;;;3.87;3.30;;;;;;;;;;5034361;28;20212;-80
2022/09/30 13:27:45;;;;;;;8.07;3.20;;;;;;;;;;5032709;28;20260;-80
2022/09/30 13:30:35;;;;;;;3.90;2.20;;;;;;;;;;5019861;28;20261;-80
2022/09/30 13:33:22;;;;;;;4.00;2.30;;;;;;;;;;5021431;28;20222;-79
2022/09/30 13:35:52;;;;;;;2.23;1.73;;;;;;;;;;5067915;28;20201;-80
2022/09/30 13:38:24;;;;;;;2.77;1.83;;;;;;;;;;5067333;28;20269;-81
2022/09/30 13:40:56;;;;;;;3.50;3.00;;;;;;;;;;5066634;28;20228;-81
2022/09/30 13:43:33;;;;;;;2.10;1.83;;;;;;;;;;5040458;28;20205;-80
2022/09/30 13:46:07;;;;;;;3.23;2.13;;;;;;;;;;5048560;28;20196;-80
2022/09/30 13:48:37;;;;;;;2.70;2.37;;;;;;;;;;5043382;28;20204;-80
2022/09/30 13:51:07;;;;;;;3.17;1.77;;;;;;;;;;5050872;28;20283;-81
2022/09/30 13:53:38;;;;;;;3.47;2.83;;;;;;;;;;5033302;28;20239;-80
2022/09/30 13:56:07;;;;;;;5.20;2.60;;;;;;;;;;5045457;28;20195;-80
2022/09/30 13:58:45;;;;;;;3.67;2.77;;;;;;;;;;5020340;28;20198;-80
2022/09/30 14:01:21;;;;;;;6.53;2.80;;;;;;;;;;5019932;28;20296;-80
2022/09/30 14:03:57;;;;;;;2.43;2.27;;;;;;;;;;5048069;28;20206;-80
2022/09/30 14:06:31;;;;;;;4.10;1.97;;;;;;;;;;5072264;28;20308;-80
2022/09/30 14:09:14;;;;;;;4.07;2.03;;;;;;;;;;5070034;28;20239;-80
2022/09/30 14:12:01;;;;;;;3.90;2.40;;;;;;;;;;5043278;28;20198;-80
2022/09/30 14:14:39;;;;;;;1.10;1.10;;;;;;;;;;5038109;28;20236;-80
2022/09/30 14:17:22;;;;;;;3.07;2.07;;;;;;;;;;5055464;28;20200;-80
2022/09/30 14:20:01;;;;;;;4.03;1.63;;;;;;;;;;5052837;28;20197;-80
2022/09/30 14:22:30;;;;;;;4.43;2.60;;;;;;;;;;5072347;28;20236;-80
2022/09/30 14:25:02;;;;;;;1.33;1.23;;;;;;;;;;5071655;28;20213;-80
2022/09/30 14:27:38;;;;;;;2.57;1.60;;;;;;;;;;5071726;28;20265;-80
2022/09/30 14:30:12;;;;;;;0.80;0.80;;;;;;;;;;5058829;28;20201;-81
2022/09/30 14:32:46;;;;;;;2.73;1.63;;;;;;;;;;5056737;28;20190;-80
2022/09/30 14:35:18;;;;;;;2.97;2.20;;;;;;;;;;5030718;28;20200;-80
2022/09/30 14:37:49;;;;;;;3.67;1.40;;;;;;;;;;5041749;28;20210;-80
2022/09/30 14:40:20;;;;;;;2.07;1.23;;;;;;;;;;5024938;28;20216;-81
2022/09/30 14:42:49;;;;;;;2.20;1.40;;;;;;;;;;5035095;28;20194;-81
2022/09/30 14:45:19;;;;;;;1.43;1.20;;;;;;;;;;5045738;28;20209;-81
2022/09/30 14:47:49;;;;;;;4.23;1.90;;;;;;;;;;5067236;28;20210;-81
2022/09/30 14:50:21;;;;;;;1.50;1.40;;;;;;;;;;5035153;28;20210;-80
2022/09/30 14:52:55;;;;;;;1.70;1.60;;;;;;;;;;5055030;28;20197;-81
2022/09/30 14:55:26;;;;;;;3.13;1.50;;;;;;;;;;5045251;28;20244;-81
2022/09/30 14:57:56;;;;;;;2.30;1.40;;;;;;;;;;5030091;28;20206;-80
2022/09/30 15:00:28;;;;;;;1.10;1.10;;;;;;;;;;5057379;28;20203;-80
2022/09/30 15:02:57;;;;;;;3.20;1.40;;;;;;;;;;5043697;28;20221;-80
2022/09/30 15:05:28;;;;;;;1.40;1.30;;;;;;;;;;5066466;28;20249;-80
2022/09/30 15:07:56;;;;;;;2.47;1.27;;;;;;;;;;5025071;28;20576;-82
2022/09/30 15:10:25;;;;;;;3.50;2.63;;;;;;;;;;5038090;28;20209;-81
2022/09/30 15:12:55;;;;;;;1.70;1.60;;;;;;;;;;5060014;28;20206;-81